createdAt,value
2022-10-16T00:02:18.745Z,100667.94
2022-10-16T00:05:20.316Z,100665.41
2022-10-16T00:08:21.847Z,100666.34
2022-10-16T00:11:26.706Z,100666.59
2022-10-16T00:14:28.229Z,100676.47
2022-10-16T00:17:30.720Z,100675.59
2022-10-16T00:20:35.817Z,100684.72
2022-10-16T00:23:37.853Z,100682.13
2022-10-16T00:26:40.467Z,100683.22
2022-10-16T00:29:41.990Z,100685.19
2022-10-16T00:32:43.545Z,100687.25
2022-10-16T00:35:45.316Z,100681.16
2022-10-16T00:38:48.121Z,100686.78
2022-10-16T00:41:50.128Z,100687.84
2022-10-16T00:44:58.875Z,100688.91
2022-10-16T00:48:00.517Z,100697.03
2022-10-16T00:51:02.561Z,100691.97
2022-10-16T00:54:07.846Z,100700.06
2022-10-16T00:57:10.202Z,100695.81
2022-10-16T01:00:15.860Z,100695.22
2022-10-16T01:03:33.462Z,100690.97
2022-10-16T01:06:59.068Z,100692.06
2022-10-16T01:10:33.264Z,100690.47
2022-10-16T01:13:42.425Z,100694.09
2022-10-16T01:16:57.217Z,100688.03
2022-10-16T01:20:07.661Z,100683.88
2022-10-16T01:23:28.280Z,100688.50
2022-10-16T01:27:06.877Z,100681.69
2022-10-16T01:30:14.884Z,100683.63
2022-10-16T01:33:25.516Z,100689.94
2022-10-16T01:36:36.153Z,100694.31
2022-10-16T01:39:40.920Z,100695.41
2022-10-16T01:42:48.364Z,100694.69
2022-10-16T01:45:50.809Z,100700.03
2022-10-16T01:48:53.531Z,100692.09
2022-10-16T01:55:08.893Z,100696.94
2022-10-16T01:58:12.592Z,100689.91
2022-10-16T02:01:18.823Z,100691.84
2022-10-16T02:04:28.652Z,100695.50
2022-10-16T02:07:30.228Z,100696.56
2022-10-16T02:10:32.732Z,100700.19
2022-10-16T02:13:46.235Z,100701.19
2022-10-16T02:16:47.911Z,100700.31
2022-10-16T02:19:52.180Z,100712.69
2022-10-16T02:22:56.883Z,100707.34
2022-10-16T02:26:00.132Z,100709.28
2022-10-16T02:29:06.821Z,100708.44
2022-10-16T02:32:11.352Z,100703.22
2022-10-16T02:35:14.376Z,100706.84
2022-10-16T02:38:17.426Z,100701.75
2022-10-16T02:41:19.792Z,100699.91
2022-10-16T02:44:21.384Z,100692.03
2022-10-16T02:47:22.906Z,100695.66
2022-10-16T02:50:26.103Z,100687.66
2022-10-16T02:53:27.658Z,100695.66
2022-10-16T02:56:29.272Z,100696.66
2022-10-16T02:59:30.831Z,100696.66
2022-10-16T03:02:32.364Z,100684.25
2022-10-16T03:05:33.950Z,100692.25
2022-10-16T03:08:35.615Z,100694.94
2022-10-16T03:11:37.160Z,100696.78
2022-10-16T03:14:38.926Z,100694.09
2022-10-16T03:17:40.537Z,100697.59
2022-10-16T03:20:43.322Z,100699.44
2022-10-16T03:23:44.925Z,100698.59
2022-10-16T03:26:46.470Z,100699.53
2022-10-16T03:29:48.045Z,100694.31
2022-10-16T03:32:49.565Z,100701.47
2022-10-16T03:35:55.606Z,100705.97
2022-10-16T03:38:57.157Z,100710.44
2022-10-16T03:41:58.681Z,100713.97
2022-10-16T03:45:00.184Z,100710.56
2022-10-16T03:48:01.737Z,100712.50
2022-10-16T03:51:03.346Z,100711.66
2022-10-16T03:54:04.871Z,100712.50
2022-10-16T03:57:06.413Z,100710.69
2022-10-16T04:00:08.537Z,100712.38
2022-10-16T04:03:10.375Z,100714.94
2022-10-16T04:06:11.911Z,100706.09
2022-10-16T04:09:13.453Z,100713.09
2022-10-16T04:12:14.976Z,100721.97
2022-10-16T04:15:16.512Z,100739.56
2022-10-16T04:18:18.062Z,100749.28
2022-10-16T04:21:19.577Z,100751.84
2022-10-16T04:24:21.149Z,100748.09
2022-10-16T04:27:22.775Z,100746.16
2022-10-16T04:30:24.519Z,100755.00
2022-10-16T04:33:26.045Z,100751.28
2022-10-16T04:36:29.256Z,100759.06
2022-10-16T04:39:31.013Z,100748.38
2022-10-16T04:42:32.582Z,100750.91
2022-10-16T04:45:34.132Z,100748.97
2022-10-16T04:48:35.656Z,100760.41
2022-10-16T04:51:37.503Z,100759.44
2022-10-16T04:54:39.074Z,100757.63
2022-10-16T04:57:41.505Z,100754.81
2022-10-16T05:00:43.167Z,100757.41
2022-10-16T05:03:44.978Z,100759.84
2022-10-16T05:06:46.509Z,100766.88
2022-10-16T05:09:48.024Z,100773.94
2022-10-16T05:12:49.621Z,100773.81
2022-10-16T05:15:51.148Z,100777.31
2022-10-16T05:18:56.182Z,100775.38
2022-10-16T05:22:06.018Z,100781.59
2022-10-16T05:25:07.890Z,100778.91
2022-10-16T05:28:09.412Z,100778.19
2022-10-16T05:31:11.257Z,100787.06
2022-10-16T05:34:12.863Z,100780.72
2022-10-16T05:37:14.428Z,100782.44
2022-10-16T05:40:17.760Z,100789.59
2022-10-16T05:43:19.932Z,100785.13
2022-10-16T05:46:21.979Z,100786.78
2022-10-16T05:49:23.571Z,100802.81
2022-10-16T05:52:25.099Z,100786.78
2022-10-16T05:55:26.680Z,100795.53
2022-10-16T05:58:36.886Z,100797.25
2022-10-16T06:01:38.416Z,100798.97
2022-10-16T06:04:40.002Z,100805.13
2022-10-16T06:07:41.587Z,100804.31
2022-10-16T06:10:44.901Z,100802.59
2022-10-16T06:13:49.821Z,100815.00
2022-10-16T06:16:51.625Z,100807.94
2022-10-16T06:19:53.169Z,100807.81
2022-10-16T06:22:54.701Z,100815.81
2022-10-16T06:26:05.605Z,100823.75
2022-10-16T06:29:07.524Z,100827.38
2022-10-16T06:32:09.087Z,100830.16
2022-10-16T06:35:10.623Z,100833.69
2022-10-16T06:38:12.204Z,100842.53
2022-10-16T06:41:16.819Z,100844.38
2022-10-16T06:44:18.383Z,100851.41
2022-10-16T06:47:19.898Z,100865.50
2022-10-16T06:50:21.495Z,100859.19
2022-10-16T06:53:23.043Z,100866.25
2022-10-16T06:56:28.717Z,100873.06
2022-10-16T06:59:30.728Z,100880.00
2022-10-16T07:02:32.267Z,100878.91
2022-10-16T07:05:39.216Z,100888.38
2022-10-16T07:08:42.520Z,100885.41
2022-10-16T07:11:44.533Z,100891.13
2022-10-16T07:14:46.572Z,100904.13
2022-10-16T07:17:48.135Z,100905.34
2022-10-16T07:20:49.642Z,100905.75
2022-10-16T07:23:52.220Z,100908.16
2022-10-16T07:26:53.828Z,100923.13
2022-10-16T07:29:55.434Z,100923.25
2022-10-16T07:32:56.951Z,100925.91
2022-10-16T07:35:58.816Z,100922.38
2022-10-16T07:39:00.621Z,100916.09
2022-10-16T07:42:02.242Z,100922.38
2022-10-16T07:45:04.122Z,100933.06
2022-10-16T07:48:05.688Z,100938.28
2022-10-16T07:51:08.326Z,100940.13
2022-10-16T07:54:11.129Z,100936.47
2022-10-16T07:57:13.006Z,100941.72
2022-10-16T08:00:14.981Z,100946.09
2022-10-16T08:03:16.557Z,100949.50
2022-10-16T08:06:21.927Z,100958.50
2022-10-16T08:09:26.771Z,100965.53
2022-10-16T08:12:28.345Z,100970.78
2022-10-16T08:15:29.876Z,100968.13
2022-10-16T08:18:31.411Z,100975.16
2022-10-16T08:21:32.939Z,100977.72
2022-10-16T08:24:35.826Z,100989.28
2022-10-16T08:27:37.378Z,100998.25
2022-10-16T08:30:39.251Z,101008.81
2022-10-16T08:33:42.873Z,101013.22
2022-10-16T08:36:44.455Z,101006.91
2022-10-16T08:39:46.010Z,101007.66
2022-10-16T08:42:53.632Z,101015.31
2022-10-16T08:46:16.856Z,101019.34
2022-10-16T08:49:18.989Z,101017.06
2022-10-16T08:52:20.548Z,101021.69
2022-10-16T08:55:52.181Z,101011.91
2022-10-16T08:58:59.637Z,101023.59
2022-10-16T09:02:03.225Z,101021.09
2022-10-16T09:05:32.846Z,101026.72
2022-10-16T09:08:46.409Z,101030.84
2022-10-16T09:12:03.140Z,101033.66
2022-10-16T09:15:40.474Z,101027.72
2022-10-16T09:18:45.865Z,101041.59
2022-10-16T09:21:49.048Z,101030.41
2022-10-16T09:24:51.085Z,101025.53
2022-10-16T09:27:54.628Z,101035.03
2022-10-16T09:30:56.229Z,101037.34
2022-10-16T09:34:07.189Z,101049.41
2022-10-16T09:37:15.585Z,101046.34
2022-10-16T09:40:38.312Z,101048.91
2022-10-16T09:43:56.845Z,101057.66
2022-10-16T09:47:13.873Z,101061.44
2022-10-16T09:50:41.697Z,101054.75
2022-10-16T09:53:47.777Z,101063.75
2022-10-16T09:56:55.015Z,101069.44
2022-10-16T09:59:59.132Z,101077.78
2022-10-16T10:03:00.764Z,101092.00
2022-10-16T10:06:17.471Z,101106.84
2022-10-16T10:09:18.996Z,101111.06
2022-10-16T10:12:27.169Z,101100.03
2022-10-16T10:15:34.566Z,101113.69
2022-10-16T10:18:36.283Z,101110.47
2022-10-16T10:21:39.616Z,101108.38
2022-10-16T10:24:41.121Z,101114.91
2022-10-16T10:28:02.633Z,101127.69
2022-10-16T10:31:10.186Z,101131.09
2022-10-16T10:34:26.912Z,101127.69
2022-10-16T10:38:04.995Z,101146.09
2022-10-16T10:41:37.852Z,101146.56
2022-10-16T10:44:51.316Z,101143.06
2022-10-16T10:48:11.699Z,101143.41
2022-10-16T10:51:22.665Z,101140.88
2022-10-16T10:54:28.721Z,101149.59
2022-10-16T10:57:52.087Z,101145.63
2022-10-16T11:01:16.127Z,101152.63
2022-10-16T11:04:36.272Z,101152.53
2022-10-16T11:07:46.111Z,101159.78
2022-10-16T11:10:59.113Z,101164.94
2022-10-16T11:14:20.644Z,101156.63
2022-10-16T11:17:31.479Z,101172.78
2022-10-16T11:20:38.472Z,101182.03
2022-10-16T11:24:02.320Z,101171.72
2022-10-16T11:27:08.916Z,101185.63
2022-10-16T11:30:21.199Z,101182.53
2022-10-16T11:33:46.979Z,101185.66
2022-10-16T11:37:01.233Z,101190.31
2022-10-16T11:40:21.367Z,101202.13
2022-10-16T11:43:29.308Z,101200.00
2022-10-16T11:46:33.696Z,101208.09
2022-10-16T11:49:38.796Z,101215.47
2022-10-16T11:52:43.829Z,101223.13
2022-10-16T11:55:47.282Z,101217.88
2022-10-16T11:59:06.589Z,101225.81
2022-10-16T12:02:08.041Z,101222.00
2022-10-16T12:05:15.587Z,101229.94
2022-10-16T12:08:18.600Z,101229.50
2022-10-16T12:11:29.416Z,101221.69
2022-10-16T12:14:43.021Z,101231.31
2022-10-16T12:17:54.371Z,101235.56
2022-10-16T12:21:05.450Z,101230.19
2022-10-16T12:24:07.492Z,101231.91
2022-10-16T12:27:34.268Z,101247.81
2022-10-16T12:30:37.748Z,101250.66
2022-10-16T12:33:58.394Z,101259.31
2022-10-16T12:37:29.998Z,101251.69
2022-10-16T12:40:34.271Z,101263.91
2022-10-16T12:43:38.739Z,101275.06
2022-10-16T12:46:41.563Z,101279.34
2022-10-16T12:49:51.389Z,101270.97
2022-10-16T12:52:52.979Z,101269.72
2022-10-16T12:56:09.847Z,101275.81
2022-10-16T12:59:17.139Z,101280.63
2022-10-16T13:02:30.591Z,101285.31
2022-10-16T13:05:50.524Z,101288.28
2022-10-16T13:09:07.216Z,101284.31
2022-10-16T13:12:51.375Z,101292.81
2022-10-16T13:16:22.156Z,101289.81
2022-10-16T13:22:57.512Z,101314.03
2022-10-16T13:26:32.759Z,101312.59
2022-10-16T13:29:35.232Z,101312.16
2022-10-16T13:32:37.345Z,101328.47
2022-10-16T13:35:50.410Z,101332.44
2022-10-16T13:39:18.380Z,101331.84
2022-10-16T13:42:28.082Z,101336.81
2022-10-16T13:45:30.187Z,101337.38
2022-10-16T13:48:33.359Z,101346.56
2022-10-16T13:51:34.992Z,101337.91
2022-10-16T13:54:36.644Z,101348.66
2022-10-16T13:57:38.483Z,101352.41
2022-10-16T14:00:40.794Z,101360.19
2022-10-16T14:03:43.395Z,101360.19
2022-10-16T14:06:47.658Z,101357.63
2022-10-16T14:09:51.932Z,101367.81
2022-10-16T14:13:07.669Z,101377.88
2022-10-16T14:16:12.144Z,101381.97
2022-10-16T14:19:20.012Z,101382.25
2022-10-16T14:22:35.129Z,101384.22
2022-10-16T14:25:36.928Z,101397.09
2022-10-16T14:28:41.470Z,101399.09
2022-10-16T14:31:44.005Z,101392.38
2022-10-16T14:34:55.049Z,101395.34
2022-10-16T14:37:58.833Z,101395.59
2022-10-16T14:41:01.404Z,101400.28
2022-10-16T14:44:05.284Z,101397.72
2022-10-16T14:47:14.476Z,101399.56
2022-10-16T14:50:16.021Z,101397.97
2022-10-16T14:53:17.604Z,101395.66
2022-10-16T14:56:25.389Z,101411.09
2022-10-16T14:59:31.341Z,101406.13
2022-10-16T15:02:35.259Z,101407.22
2022-10-16T15:05:36.985Z,101409.31
2022-10-16T15:08:39.148Z,101423.03
2022-10-16T15:11:41.447Z,101420.47
2022-10-16T15:14:42.962Z,101435.75
2022-10-16T15:17:44.485Z,101438.59
2022-10-16T15:20:46.084Z,101436.16
2022-10-16T15:23:47.735Z,101438.38
2022-10-16T15:26:50.278Z,101447.44
2022-10-16T15:29:51.806Z,101439.50
2022-10-16T15:32:53.551Z,101453.06
2022-10-16T15:35:55.704Z,101459.69
2022-10-16T15:38:57.932Z,101461.91
2022-10-16T15:41:59.525Z,101456.94
2022-10-16T15:45:01.581Z,101453.91
2022-10-16T15:48:03.346Z,101447.91
2022-10-16T15:51:07.012Z,101449.28
2022-10-16T15:54:09.495Z,101445.13
2022-10-16T15:57:11.029Z,101440.97
2022-10-16T16:00:19.393Z,101448.59
2022-10-16T16:03:20.937Z,101461.78
2022-10-16T16:06:24.798Z,101456.16
2022-10-16T16:09:26.348Z,101465.81
2022-10-16T16:12:28.815Z,101470.84
2022-10-16T16:15:30.607Z,101473.78
2022-10-16T16:18:32.267Z,101478.91
2022-10-16T16:21:34.742Z,101476.72
2022-10-16T16:24:36.317Z,101485.66
2022-10-16T16:27:39.545Z,101489.03
2022-10-16T16:30:42.205Z,101496.97
2022-10-16T16:33:43.875Z,101500.53
2022-10-16T16:36:45.398Z,101509.41
2022-10-16T16:39:46.934Z,101514.47
2022-10-16T16:42:49.929Z,101518.75
2022-10-16T16:45:51.583Z,101528.94
2022-10-16T16:49:08.883Z,101527.31
2022-10-16T16:52:10.515Z,101533.59
2022-10-16T16:55:12.066Z,101529.78
2022-10-16T16:58:13.598Z,101538.19
2022-10-16T17:01:19.715Z,101543.16
2022-10-16T17:04:22.011Z,101549.00
2022-10-16T17:07:24.574Z,101554.19
2022-10-16T17:10:26.250Z,101547.56
2022-10-16T17:13:35.973Z,101556.06
2022-10-16T17:16:39.116Z,101565.53
2022-10-16T17:19:40.713Z,101570.72
2022-10-16T17:22:42.267Z,101573.16
2022-10-16T17:25:43.992Z,101580.94
2022-10-16T17:28:45.906Z,101588.66
2022-10-16T17:31:49.919Z,101592.75
2022-10-16T17:34:51.493Z,101578.91
2022-10-16T17:37:53.429Z,101586.31
2022-10-16T17:40:54.957Z,101591.03
2022-10-16T17:43:56.652Z,101598.53
2022-10-16T17:46:58.232Z,101598.78
2022-10-16T17:49:59.811Z,101606.16
2022-10-16T17:53:01.356Z,101607.56
2022-10-16T17:56:05.665Z,101610.78
2022-10-16T17:59:07.786Z,101624.56
2022-10-16T18:02:11.088Z,101624.03
2022-10-16T18:05:12.691Z,101620.81
2022-10-16T18:08:14.232Z,101630.03
2022-10-16T18:11:15.774Z,101631.69
2022-10-16T18:14:18.207Z,101623.94
2022-10-16T18:17:19.812Z,101622.44
2022-10-16T18:20:21.341Z,101627.16
2022-10-16T18:23:23.028Z,101633.66
2022-10-16T18:26:25.124Z,101637.59
2022-10-16T18:29:27.698Z,101644.88
2022-10-16T18:32:29.375Z,101638.13
2022-10-16T18:35:30.952Z,101649.03
2022-10-16T18:38:33.694Z,101647.63
2022-10-16T18:41:37.340Z,101651.41
2022-10-16T18:44:38.857Z,101651.34
2022-10-16T18:47:40.342Z,101659.88
2022-10-16T18:50:41.880Z,101660.91
2022-10-16T18:53:46.297Z,101662.63
2022-10-16T18:56:48.085Z,101672.47
2022-10-16T18:59:49.621Z,101677.91
2022-10-16T19:02:51.178Z,101677.16
2022-10-16T19:05:52.833Z,101670.94
2022-10-16T19:08:56.011Z,101666.44
2022-10-16T19:11:59.629Z,101677.16
2022-10-16T19:15:01.377Z,101685.28
2022-10-16T19:18:03.134Z,101679.25
2022-10-16T19:24:12.127Z,101667.56
2022-10-16T19:27:13.896Z,101676.47
2022-10-16T19:30:16.050Z,101684.09
2022-10-16T19:33:17.635Z,101673.03
2022-10-16T19:36:23.693Z,101669.78
2022-10-16T19:39:25.406Z,101673.31
2022-10-16T19:42:27.442Z,101675.97
2022-10-16T19:45:29.142Z,101677.91
2022-10-16T19:48:30.697Z,101675.22
2022-10-16T19:51:32.651Z,101675.22
2022-10-16T19:54:35.825Z,101673.50
2022-10-16T19:57:38.127Z,101675.69
2022-10-16T20:00:42.659Z,101678.13
2022-10-16T20:03:46.392Z,101686.72
2022-10-16T20:06:48.447Z,101675.56
2022-10-16T20:09:50.312Z,101683.25
2022-10-16T20:12:52.662Z,101690.56
2022-10-16T20:15:54.418Z,101688.66
2022-10-16T20:18:56.826Z,101694.59
2022-10-16T20:21:58.426Z,101706.91
2022-10-16T20:24:59.965Z,101712.16
2022-10-16T20:28:01.483Z,101721.22
2022-10-16T20:31:08.255Z,101738.19
2022-10-16T20:34:12.294Z,101741.72
2022-10-16T20:37:13.883Z,101732.72
2022-10-16T20:40:15.569Z,101720.69
2022-10-16T20:43:18.751Z,101720.66
2022-10-16T20:46:23.580Z,101728.16
2022-10-16T20:49:36.066Z,101716.34
2022-10-16T20:52:41.355Z,101711.63
2022-10-16T20:55:43.285Z,101736.28
2022-10-16T20:58:45.616Z,101746.91
2022-10-16T21:01:47.471Z,101744.91
2022-10-16T21:04:49.852Z,101742.44
2022-10-16T21:07:51.464Z,101740.97
2022-10-16T21:10:52.993Z,101731.59
2022-10-16T21:13:58.748Z,101732.78
2022-10-16T21:17:01.395Z,101729.50
2022-10-16T21:20:03.114Z,101724.94
2022-10-16T21:23:04.733Z,101731.91
2022-10-16T21:26:07.202Z,101721.97
2022-10-16T21:29:08.848Z,101719.09
2022-10-16T21:32:10.490Z,101730.56
2022-10-16T21:35:12.053Z,101732.28
2022-10-16T21:38:13.583Z,101739.25
2022-10-16T21:41:23.704Z,101737.59
2022-10-16T21:44:25.301Z,101740.72
2022-10-16T21:47:27.348Z,101739.41
2022-10-16T21:50:28.897Z,101732.88
2022-10-16T21:53:30.467Z,101731.53
2022-10-16T21:56:32.116Z,101733.38
2022-10-16T21:59:33.667Z,101737.63
2022-10-16T22:02:35.455Z,101724.03
2022-10-16T22:05:36.995Z,101730.22
2022-10-16T22:08:39.707Z,101726.69
2022-10-16T22:11:44.026Z,101717.81
2022-10-16T22:14:46.498Z,101701.81
2022-10-16T22:17:47.992Z,101700.41
2022-10-16T22:20:49.576Z,101709.56
2022-10-16T22:23:51.141Z,101715.03
2022-10-16T22:26:52.873Z,101711.78
2022-10-16T22:29:54.391Z,101708.34
2022-10-16T22:32:55.944Z,101704.13
2022-10-16T22:36:00.173Z,101698.22
2022-10-16T22:39:02.112Z,101703.88
2022-10-16T22:42:03.858Z,101700.63
2022-10-16T22:45:05.859Z,101698.97
2022-10-16T22:48:07.424Z,101694.69
2022-10-16T22:51:15.607Z,101686.88
2022-10-16T22:54:18.532Z,101678.28
2022-10-16T22:57:20.061Z,101665.13
2022-10-16T23:00:21.755Z,101667.94
2022-10-16T23:03:23.329Z,101675.19
2022-10-16T23:06:25.405Z,101663.66
2022-10-16T23:09:27.504Z,101647.75
2022-10-16T23:15:49.535Z,101649.13
2022-10-16T23:18:51.135Z,101654.56
2022-10-16T23:21:52.755Z,101646.56
2022-10-16T23:24:54.294Z,101653.69
2022-10-16T23:27:56.185Z,101665.22
2022-10-16T23:30:57.765Z,101657.97
2022-10-16T23:33:59.758Z,101655.41
2022-10-16T23:37:03.731Z,101649.22
2022-10-16T23:40:05.707Z,101646.63
2022-10-16T23:43:07.286Z,101645.78
2022-10-16T23:46:10.801Z,101646.63
2022-10-16T23:49:12.405Z,101645.78
2022-10-16T23:52:13.981Z,101651.03
2022-10-16T23:55:15.541Z,101649.22
2022-10-16T23:58:17.495Z,101638.63
